Terminal Aerodrome Forecast
Issued by NWS Charleston, WV

Current Version | Previous Version | Graphics & Text | Print | Product List | Glossary On
Versions: 1 2 3 4 5 6 7 8 9 10 11 12 13 14 15 16 17 18 19 20 21 22
000
FTUS41 KRLX 211744
TAFBKW
TAF
KBKW 211744Z 2118/2218 28008G16KT P6SM SCT050
      TEMPO 2118/2121 BKN050
     FM220100 21002KT P6SM SCT200
     FM220600 00000KT P6SM SCT100
     FM221200 21003KT P6SM BKN100
     FM221600 23006KT P6SM VCSH BKN060=

USA.gov is the U.S. government's official web portal to all federal, state and local government web resources and services.